sensor_id;sensor_type;location;lat;lon;timestamp;P1;durP1;ratioP1;P2;durP2;ratioP2
58208;SDS011;44006;52.028;4.696;2022-10-16T00:01:21;7.13;;;1.58;;
58208;SDS011;44006;52.028;4.696;2022-10-16T00:03:48;3.88;;;1.63;;
58208;SDS011;44006;52.028;4.696;2022-10-16T00:06:14;7.55;;;1.98;;
58208;SDS011;44006;52.028;4.696;2022-10-16T00:08:40;6.10;;;1.98;;
58208;SDS011;44006;52.028;4.696;2022-10-16T00:11:10;7.03;;;1.98;;
58208;SDS011;44006;52.028;4.696;2022-10-16T00:13:36;3.67;;;1.60;;
58208;SDS011;44006;52.028;4.696;2022-10-16T00:16:02;4.75;;;1.80;;
58208;SDS011;44006;52.028;4.696;2022-10-16T00:18:28;5.80;;;1.95;;
58208;SDS011;44006;52.028;4.696;2022-10-16T00:21:01;5.55;;;2.00;;
58208;SDS011;44006;52.028;4.696;2022-10-16T00:23:26;3.97;;;1.70;;
58208;SDS011;44006;52.028;4.696;2022-10-16T00:25:55;3.50;;;2.00;;
58208;SDS011;44006;52.028;4.696;2022-10-16T00:28:21;9.35;;;2.35;;
58208;SDS011;44006;52.028;4.696;2022-10-16T00:30:46;4.97;;;1.80;;
58208;SDS011;44006;52.028;4.696;2022-10-16T00:33:11;7.95;;;2.22;;
58208;SDS011;44006;52.028;4.696;2022-10-16T00:35:36;4.13;;;2.20;;
58208;SDS011;44006;52.028;4.696;2022-10-16T00:38:03;7.83;;;1.70;;
58208;SDS011;44006;52.028;4.696;2022-10-16T00:40:28;5.75;;;1.63;;
58208;SDS011;44006;52.028;4.696;2022-10-16T00:42:53;3.25;;;1.48;;
58208;SDS011;44006;52.028;4.696;2022-10-16T00:45:19;5.03;;;1.58;;
58208;SDS011;44006;52.028;4.696;2022-10-16T00:47:44;2.45;;;0.98;;
58208;SDS011;44006;52.028;4.696;2022-10-16T00:50:21;2.00;;;1.20;;
58208;SDS011;44006;52.028;4.696;2022-10-16T00:52:48;2.92;;;1.20;;
58208;SDS011;44006;52.028;4.696;2022-10-16T00:55:15;7.80;;;1.75;;
58208;SDS011;44006;52.028;4.696;2022-10-16T00:57:40;4.60;;;1.50;;
58208;SDS011;44006;52.028;4.696;2022-10-16T01:00:07;5.15;;;2.00;;
58208;SDS011;44006;52.028;4.696;2022-10-16T01:02:33;7.43;;;1.90;;
58208;SDS011;44006;52.028;4.696;2022-10-16T01:04:58;6.22;;;2.08;;
58208;SDS011;44006;52.028;4.696;2022-10-16T01:07:32;5.22;;;2.05;;
58208;SDS011;44006;52.028;4.696;2022-10-16T01:15:03;5.13;;;1.75;;
58208;SDS011;44006;52.028;4.696;2022-10-16T01:17:47;6.22;;;2.20;;
58208;SDS011;44006;52.028;4.696;2022-10-16T01:25:29;3.80;;;2.25;;
58208;SDS011;44006;52.028;4.696;2022-10-16T01:27:56;6.50;;;2.20;;
58208;SDS011;44006;52.028;4.696;2022-10-16T01:30:29;5.93;;;2.00;;
58208;SDS011;44006;52.028;4.696;2022-10-16T01:33:08;7.93;;;2.38;;
58208;SDS011;44006;52.028;4.696;2022-10-16T01:35:36;9.02;;;2.40;;
58208;SDS011;44006;52.028;4.696;2022-10-16T01:38:04;6.88;;;2.70;;
58208;SDS011;44006;52.028;4.696;2022-10-16T01:40:32;5.50;;;2.58;;
58208;SDS011;44006;52.028;4.696;2022-10-16T01:43:03;7.40;;;2.70;;
58208;SDS011;44006;52.028;4.696;2022-10-16T01:47:55;4.38;;;2.10;;
58208;SDS011;44006;52.028;4.696;2022-10-16T01:50:20;6.22;;;2.03;;
58208;SDS011;44006;52.028;4.696;2022-10-16T01:52:47;5.25;;;2.70;;
58208;SDS011;44006;52.028;4.696;2022-10-16T01:55:16;5.80;;;2.40;;
58208;SDS011;44006;52.028;4.696;2022-10-16T01:57:44;5.22;;;1.98;;
58208;SDS011;44006;52.028;4.696;2022-10-16T02:00:12;6.07;;;2.83;;
58208;SDS011;44006;52.028;4.696;2022-10-16T02:02:38;6.90;;;2.33;;
58208;SDS011;44006;52.028;4.696;2022-10-16T02:05:12;3.90;;;2.35;;
58208;SDS011;44006;52.028;4.696;2022-10-16T02:07:40;10.70;;;2.58;;
58208;SDS011;44006;52.028;4.696;2022-10-16T02:10:09;6.78;;;2.58;;
58208;SDS011;44006;52.028;4.696;2022-10-16T02:12:35;5.10;;;2.50;;
58208;SDS011;44006;52.028;4.696;2022-10-16T02:15:02;8.57;;;3.03;;
58208;SDS011;44006;52.028;4.696;2022-10-16T02:17:27;4.38;;;2.50;;
58208;SDS011;44006;52.028;4.696;2022-10-16T02:19:54;5.40;;;2.53;;
58208;SDS011;44006;52.028;4.696;2022-10-16T02:22:27;6.80;;;2.55;;
58208;SDS011;44006;52.028;4.696;2022-10-16T02:27:24;7.93;;;2.92;;
58208;SDS011;44006;52.028;4.696;2022-10-16T02:29:52;5.82;;;3.00;;
58208;SDS011;44006;52.028;4.696;2022-10-16T02:32:20;6.43;;;2.92;;
58208;SDS011;44006;52.028;4.696;2022-10-16T02:34:46;7.60;;;2.88;;
58208;SDS011;44006;52.028;4.696;2022-10-16T02:37:13;6.88;;;2.90;;
58208;SDS011;44006;52.028;4.696;2022-10-16T02:39:38;4.90;;;3.03;;
58208;SDS011;44006;52.028;4.696;2022-10-16T02:42:06;4.57;;;2.70;;
58208;SDS011;44006;52.028;4.696;2022-10-16T02:44:34;5.97;;;3.00;;
58208;SDS011;44006;52.028;4.696;2022-10-16T02:46:59;7.47;;;2.80;;
58208;SDS011;44006;52.028;4.696;2022-10-16T02:49:24;5.63;;;2.93;;
58208;SDS011;44006;52.028;4.696;2022-10-16T02:51:50;5.80;;;2.88;;
58208;SDS011;44006;52.028;4.696;2022-10-16T02:54:15;4.27;;;2.60;;
58208;SDS011;44006;52.028;4.696;2022-10-16T02:56:40;6.90;;;2.92;;
58208;SDS011;44006;52.028;4.696;2022-10-16T02:59:05;5.33;;;2.47;;
58208;SDS011;44006;52.028;4.696;2022-10-16T03:01:30;6.00;;;2.40;;
58208;SDS011;44006;52.028;4.696;2022-10-16T03:03:56;5.50;;;2.70;;
58208;SDS011;44006;52.028;4.696;2022-10-16T03:06:21;6.53;;;2.30;;
58208;SDS011;44006;52.028;4.696;2022-10-16T03:08:46;5.68;;;2.53;;
58208;SDS011;44006;52.028;4.696;2022-10-16T03:11:11;5.75;;;2.55;;
58208;SDS011;44006;52.028;4.696;2022-10-16T03:13:38;5.77;;;2.77;;
58208;SDS011;44006;52.028;4.696;2022-10-16T03:16:03;6.38;;;2.45;;
58208;SDS011;44006;52.028;4.696;2022-10-16T03:18:28;5.30;;;2.58;;
58208;SDS011;44006;52.028;4.696;2022-10-16T03:20:53;4.97;;;2.93;;
58208;SDS011;44006;52.028;4.696;2022-10-16T03:23:18;7.03;;;2.10;;
58208;SDS011;44006;52.028;4.696;2022-10-16T03:25:44;7.77;;;2.80;;
58208;SDS011;44006;52.028;4.696;2022-10-16T03:28:09;5.32;;;2.47;;
58208;SDS011;44006;52.028;4.696;2022-10-16T03:30:34;5.83;;;2.60;;
58208;SDS011;44006;52.028;4.696;2022-10-16T03:32:59;7.25;;;2.70;;
58208;SDS011;44006;52.028;4.696;2022-10-16T03:35:25;6.80;;;2.73;;
58208;SDS011;44006;52.028;4.696;2022-10-16T03:37:51;5.55;;;2.72;;
58208;SDS011;44006;52.028;4.696;2022-10-16T03:40:16;6.43;;;2.80;;
58208;SDS011;44006;52.028;4.696;2022-10-16T03:42:42;8.07;;;2.83;;
58208;SDS011;44006;52.028;4.696;2022-10-16T03:45:07;6.45;;;2.67;;
58208;SDS011;44006;52.028;4.696;2022-10-16T03:47:33;5.97;;;2.80;;
58208;SDS011;44006;52.028;4.696;2022-10-16T03:49:58;6.93;;;2.60;;
58208;SDS011;44006;52.028;4.696;2022-10-16T03:52:24;7.03;;;2.60;;
58208;SDS011;44006;52.028;4.696;2022-10-16T03:54:49;8.05;;;2.50;;
58208;SDS011;44006;52.028;4.696;2022-10-16T03:57:14;4.93;;;2.10;;
58208;SDS011;44006;52.028;4.696;2022-10-16T03:59:39;4.72;;;2.38;;
58208;SDS011;44006;52.028;4.696;2022-10-16T04:02:07;10.40;;;2.23;;
58208;SDS011;44006;52.028;4.696;2022-10-16T04:04:32;5.80;;;1.98;;
58208;SDS011;44006;52.028;4.696;2022-10-16T04:06:57;7.15;;;2.40;;
58208;SDS011;44006;52.028;4.696;2022-10-16T04:09:22;6.53;;;2.67;;
58208;SDS011;44006;52.028;4.696;2022-10-16T04:11:48;3.92;;;2.10;;
58208;SDS011;44006;52.028;4.696;2022-10-16T04:14:13;6.68;;;1.85;;
58208;SDS011;44006;52.028;4.696;2022-10-16T04:16:38;5.95;;;1.83;;
58208;SDS011;44006;52.028;4.696;2022-10-16T04:19:03;4.93;;;2.30;;
58208;SDS011;44006;52.028;4.696;2022-10-16T04:21:28;7.73;;;2.27;;
58208;SDS011;44006;52.028;4.696;2022-10-16T04:23:54;5.57;;;1.95;;
58208;SDS011;44006;52.028;4.696;2022-10-16T04:26:19;5.37;;;2.60;;
58208;SDS011;44006;52.028;4.696;2022-10-16T04:28:44;4.38;;;1.90;;
58208;SDS011;44006;52.028;4.696;2022-10-16T04:31:09;4.60;;;2.13;;
58208;SDS011;44006;52.028;4.696;2022-10-16T04:33:34;3.57;;;1.90;;
58208;SDS011;44006;52.028;4.696;2022-10-16T04:36:00;5.30;;;1.90;;
58208;SDS011;44006;52.028;4.696;2022-10-16T04:38:26;3.13;;;1.92;;
58208;SDS011;44006;52.028;4.696;2022-10-16T04:40:51;6.07;;;2.33;;
58208;SDS011;44006;52.028;4.696;2022-10-16T04:43:17;6.68;;;2.38;;
58208;SDS011;44006;52.028;4.696;2022-10-16T04:45:42;3.40;;;1.95;;
58208;SDS011;44006;52.028;4.696;2022-10-16T04:48:07;4.55;;;2.13;;
58208;SDS011;44006;52.028;4.696;2022-10-16T04:50:33;6.07;;;2.20;;
58208;SDS011;44006;52.028;4.696;2022-10-16T04:52:58;5.43;;;2.33;;
58208;SDS011;44006;52.028;4.696;2022-10-16T04:55:23;8.30;;;2.30;;
58208;SDS011;44006;52.028;4.696;2022-10-16T04:57:48;7.22;;;2.25;;
58208;SDS011;44006;52.028;4.696;2022-10-16T05:00:14;5.75;;;2.28;;
58208;SDS011;44006;52.028;4.696;2022-10-16T05:02:40;6.53;;;2.05;;
58208;SDS011;44006;52.028;4.696;2022-10-16T05:05:06;4.80;;;2.17;;
58208;SDS011;44006;52.028;4.696;2022-10-16T05:07:31;3.35;;;1.83;;
58208;SDS011;44006;52.028;4.696;2022-10-16T05:09:57;5.97;;;2.30;;
58208;SDS011;44006;52.028;4.696;2022-10-16T05:12:22;5.40;;;2.22;;
58208;SDS011;44006;52.028;4.696;2022-10-16T05:14:47;5.28;;;1.90;;
58208;SDS011;44006;52.028;4.696;2022-10-16T05:17:13;4.90;;;2.03;;
58208;SDS011;44006;52.028;4.696;2022-10-16T05:19:39;4.57;;;2.10;;
58208;SDS011;44006;52.028;4.696;2022-10-16T05:22:04;7.07;;;2.13;;
58208;SDS011;44006;52.028;4.696;2022-10-16T05:24:29;8.00;;;2.47;;
58208;SDS011;44006;52.028;4.696;2022-10-16T05:26:55;9.03;;;2.40;;
58208;SDS011;44006;52.028;4.696;2022-10-16T05:29:21;6.25;;;2.40;;
58208;SDS011;44006;52.028;4.696;2022-10-16T05:31:46;7.22;;;2.40;;
58208;SDS011;44006;52.028;4.696;2022-10-16T05:34:12;6.60;;;2.20;;
58208;SDS011;44006;52.028;4.696;2022-10-16T05:36:37;5.47;;;2.20;;
58208;SDS011;44006;52.028;4.696;2022-10-16T05:39:03;5.40;;;2.23;;
58208;SDS011;44006;52.028;4.696;2022-10-16T05:41:29;8.60;;;2.20;;
58208;SDS011;44006;52.028;4.696;2022-10-16T05:43:55;4.97;;;2.00;;
58208;SDS011;44006;52.028;4.696;2022-10-16T05:46:21;6.60;;;2.30;;
58208;SDS011;44006;52.028;4.696;2022-10-16T05:48:47;5.85;;;2.35;;
58208;SDS011;44006;52.028;4.696;2022-10-16T05:51:13;5.50;;;2.50;;
58208;SDS011;44006;52.028;4.696;2022-10-16T05:53:39;8.52;;;2.35;;
58208;SDS011;44006;52.028;4.696;2022-10-16T05:56:06;4.43;;;2.53;;
58208;SDS011;44006;52.028;4.696;2022-10-16T05:58:35;7.07;;;2.50;;
58208;SDS011;44006;52.028;4.696;2022-10-16T06:01:02;10.40;;;2.58;;
58208;SDS011;44006;52.028;4.696;2022-10-16T06:03:28;8.52;;;2.78;;
58208;SDS011;44006;52.028;4.696;2022-10-16T06:05:54;8.55;;;2.50;;
58208;SDS011;44006;52.028;4.696;2022-10-16T06:08:20;6.13;;;2.17;;
58208;SDS011;44006;52.028;4.696;2022-10-16T06:10:45;6.57;;;2.47;;
58208;SDS011;44006;52.028;4.696;2022-10-16T06:13:12;6.95;;;2.45;;
58208;SDS011;44006;52.028;4.696;2022-10-16T06:15:38;7.95;;;2.25;;
58208;SDS011;44006;52.028;4.696;2022-10-16T06:18:04;8.25;;;2.13;;
58208;SDS011;44006;52.028;4.696;2022-10-16T06:20:29;5.60;;;2.17;;
58208;SDS011;44006;52.028;4.696;2022-10-16T06:22:54;5.03;;;2.08;;
58208;SDS011;44006;52.028;4.696;2022-10-16T06:25:19;4.43;;;2.17;;
58208;SDS011;44006;52.028;4.696;2022-10-16T06:27:45;10.90;;;2.85;;
58208;SDS011;44006;52.028;4.696;2022-10-16T06:30:11;9.05;;;2.40;;
58208;SDS011;44006;52.028;4.696;2022-10-16T06:32:36;6.32;;;2.15;;
58208;SDS011;44006;52.028;4.696;2022-10-16T06:35:01;5.25;;;1.73;;
58208;SDS011;44006;52.028;4.696;2022-10-16T06:37:27;5.15;;;2.50;;
58208;SDS011;44006;52.028;4.696;2022-10-16T06:39:53;4.25;;;1.52;;
58208;SDS011;44006;52.028;4.696;2022-10-16T06:42:18;5.10;;;1.35;;
58208;SDS011;44006;52.028;4.696;2022-10-16T06:44:44;4.00;;;1.50;;
58208;SDS011;44006;52.028;4.696;2022-10-16T06:47:09;11.07;;;1.85;;
58208;SDS011;44006;52.028;4.696;2022-10-16T06:49:34;6.70;;;1.45;;
58208;SDS011;44006;52.028;4.696;2022-10-16T06:51:59;8.75;;;1.42;;
58208;SDS011;44006;52.028;4.696;2022-10-16T06:54:25;8.20;;;1.35;;
58208;SDS011;44006;52.028;4.696;2022-10-16T06:56:50;5.43;;;1.20;;
58208;SDS011;44006;52.028;4.696;2022-10-16T06:59:16;7.70;;;1.48;;
58208;SDS011;44006;52.028;4.696;2022-10-16T07:01:41;7.00;;;1.58;;
58208;SDS011;44006;52.028;4.696;2022-10-16T07:04:06;8.15;;;1.52;;
58208;SDS011;44006;52.028;4.696;2022-10-16T07:06:32;5.23;;;1.53;;
58208;SDS011;44006;52.028;4.696;2022-10-16T07:09:00;4.85;;;1.52;;
58208;SDS011;44006;52.028;4.696;2022-10-16T07:11:25;8.77;;;1.83;;
58208;SDS011;44006;52.028;4.696;2022-10-16T07:13:56;6.57;;;1.83;;
58208;SDS011;44006;52.028;4.696;2022-10-16T07:16:29;8.45;;;1.67;;
58208;SDS011;44006;52.028;4.696;2022-10-16T07:18:55;5.50;;;1.90;;
58208;SDS011;44006;52.028;4.696;2022-10-16T07:21:23;11.00;;;2.35;;
58208;SDS011;44006;52.028;4.696;2022-10-16T07:23:54;8.77;;;1.95;;
58208;SDS011;44006;52.028;4.696;2022-10-16T07:26:20;7.40;;;1.98;;
58208;SDS011;44006;52.028;4.696;2022-10-16T07:28:45;5.03;;;1.80;;
58208;SDS011;44006;52.028;4.696;2022-10-16T07:31:12;5.97;;;2.00;;
58208;SDS011;44006;52.028;4.696;2022-10-16T07:33:38;6.07;;;1.90;;
58208;SDS011;44006;52.028;4.696;2022-10-16T07:36:05;5.88;;;2.42;;
58208;SDS011;44006;52.028;4.696;2022-10-16T07:38:32;5.65;;;2.17;;
58208;SDS011;44006;52.028;4.696;2022-10-16T07:41:02;5.97;;;2.08;;
58208;SDS011;44006;52.028;4.696;2022-10-16T07:43:28;6.53;;;2.22;;
58208;SDS011;44006;52.028;4.696;2022-10-16T07:45:54;8.90;;;2.47;;
58208;SDS011;44006;52.028;4.696;2022-10-16T07:48:20;7.50;;;1.98;;
58208;SDS011;44006;52.028;4.696;2022-10-16T07:50:45;8.68;;;2.53;;
58208;SDS011;44006;52.028;4.696;2022-10-16T07:53:11;7.25;;;2.50;;
58208;SDS011;44006;52.028;4.696;2022-10-16T07:55:37;7.28;;;2.40;;
58208;SDS011;44006;52.028;4.696;2022-10-16T07:58:03;10.10;;;2.53;;
58208;SDS011;44006;52.028;4.696;2022-10-16T08:00:29;6.60;;;2.20;;
58208;SDS011;44006;52.028;4.696;2022-10-16T08:02:56;6.63;;;2.15;;
58208;SDS011;44006;52.028;4.696;2022-10-16T08:05:24;12.18;;;2.30;;
58208;SDS011;44006;52.028;4.696;2022-10-16T08:07:50;8.32;;;2.20;;
58208;SDS011;44006;52.028;4.696;2022-10-16T08:10:16;10.07;;;2.13;;
58208;SDS011;44006;52.028;4.696;2022-10-16T08:12:41;13.05;;;2.25;;
58208;SDS011;44006;52.028;4.696;2022-10-16T08:15:07;10.80;;;2.67;;
58208;SDS011;44006;52.028;4.696;2022-10-16T08:17:34;8.85;;;2.33;;
58208;SDS011;44006;52.028;4.696;2022-10-16T08:19:59;10.30;;;2.10;;
58208;SDS011;44006;52.028;4.696;2022-10-16T08:22:24;3.37;;;1.70;;
58208;SDS011;44006;52.028;4.696;2022-10-16T08:24:51;9.38;;;2.05;;
58208;SDS011;44006;52.028;4.696;2022-10-16T08:27:16;7.47;;;3.08;;
58208;SDS011;44006;52.028;4.696;2022-10-16T08:29:41;6.55;;;1.83;;
58208;SDS011;44006;52.028;4.696;2022-10-16T08:32:07;9.73;;;2.03;;
58208;SDS011;44006;52.028;4.696;2022-10-16T08:34:33;7.68;;;1.92;;
58208;SDS011;44006;52.028;4.696;2022-10-16T08:36:58;9.75;;;2.28;;
58208;SDS011;44006;52.028;4.696;2022-10-16T08:39:23;5.95;;;2.05;;
58208;SDS011;44006;52.028;4.696;2022-10-16T08:46:51;13.27;;;2.40;;
58208;SDS011;44006;52.028;4.696;2022-10-16T08:49:21;11.73;;;2.03;;
58208;SDS011;44006;52.028;4.696;2022-10-16T08:51:46;10.65;;;2.28;;
58208;SDS011;44006;52.028;4.696;2022-10-16T08:54:18;14.40;;;2.90;;
58208;SDS011;44006;52.028;4.696;2022-10-16T08:56:46;14.45;;;2.92;;
58208;SDS011;44006;52.028;4.696;2022-10-16T08:59:12;11.25;;;2.50;;
58208;SDS011;44006;52.028;4.696;2022-10-16T09:01:40;15.63;;;2.47;;
58208;SDS011;44006;52.028;4.696;2022-10-16T09:11:55;12.83;;;2.50;;
58208;SDS011;44006;52.028;4.696;2022-10-16T09:19:51;9.07;;;2.60;;
58208;SDS011;44006;52.028;4.696;2022-10-16T09:22:18;19.13;;;3.73;;
58208;SDS011;44006;52.028;4.696;2022-10-16T09:24:48;12.77;;;2.50;;
58208;SDS011;44006;52.028;4.696;2022-10-16T09:27:14;12.43;;;2.92;;
58208;SDS011;44006;52.028;4.696;2022-10-16T09:29:39;15.25;;;2.90;;
58208;SDS011;44006;52.028;4.696;2022-10-16T09:32:15;13.05;;;3.03;;
58208;SDS011;44006;52.028;4.696;2022-10-16T09:34:43;13.50;;;2.15;;
58208;SDS011;44006;52.028;4.696;2022-10-16T09:37:12;15.93;;;3.03;;
58208;SDS011;44006;52.028;4.696;2022-10-16T09:39:51;10.43;;;2.53;;
58208;SDS011;44006;52.028;4.696;2022-10-16T09:42:17;15.73;;;2.63;;
58208;SDS011;44006;52.028;4.696;2022-10-16T09:44:47;14.57;;;2.60;;
58208;SDS011;44006;52.028;4.696;2022-10-16T09:47:15;11.27;;;2.58;;
58208;SDS011;44006;52.028;4.696;2022-10-16T09:50:02;11.80;;;2.30;;
58208;SDS011;44006;52.028;4.696;2022-10-16T09:52:30;11.77;;;2.40;;
58208;SDS011;44006;52.028;4.696;2022-10-16T09:54:56;9.63;;;2.28;;
58208;SDS011;44006;52.028;4.696;2022-10-16T09:57:22;16.23;;;2.35;;
58208;SDS011;44006;52.028;4.696;2022-10-16T09:59:50;12.57;;;2.47;;
58208;SDS011;44006;52.028;4.696;2022-10-16T10:02:20;8.93;;;2.40;;
58208;SDS011;44006;52.028;4.696;2022-10-16T10:04:51;11.82;;;2.67;;
58208;SDS011;44006;52.028;4.696;2022-10-16T10:07:26;10.98;;;2.85;;
58208;SDS011;44006;52.028;4.696;2022-10-16T10:09:52;12.02;;;1.83;;
58208;SDS011;44006;52.028;4.696;2022-10-16T10:12:23;10.73;;;1.98;;
58208;SDS011;44006;52.028;4.696;2022-10-16T10:14:49;11.70;;;2.83;;
58208;SDS011;44006;52.028;4.696;2022-10-16T10:22:20;14.60;;;2.88;;
58208;SDS011;44006;52.028;4.696;2022-10-16T10:27:21;10.95;;;2.33;;
58208;SDS011;44006;52.028;4.696;2022-10-16T10:32:45;13.68;;;2.53;;
58208;SDS011;44006;52.028;4.696;2022-10-16T10:35:22;11.13;;;2.38;;
58208;SDS011;44006;52.028;4.696;2022-10-16T10:40:39;18.50;;;2.50;;
58208;SDS011;44006;52.028;4.696;2022-10-16T10:45:52;16.30;;;2.25;;
58208;SDS011;44006;52.028;4.696;2022-10-16T10:48:23;10.82;;;2.17;;
58208;SDS011;44006;52.028;4.696;2022-10-16T10:50:51;14.45;;;2.40;;
58208;SDS011;44006;52.028;4.696;2022-10-16T10:58:40;9.27;;;2.05;;
58208;SDS011;44006;52.028;4.696;2022-10-16T11:08:52;14.38;;;2.50;;
58208;SDS011;44006;52.028;4.696;2022-10-16T11:13:45;11.53;;;2.17;;
58208;SDS011;44006;52.028;4.696;2022-10-16T11:16:27;11.10;;;2.30;;
58208;SDS011;44006;52.028;4.696;2022-10-16T11:19:02;12.43;;;1.85;;
58208;SDS011;44006;52.028;4.696;2022-10-16T11:21:30;10.68;;;2.08;;
58208;SDS011;44006;52.028;4.696;2022-10-16T11:26:26;8.50;;;1.77;;
58208;SDS011;44006;52.028;4.696;2022-10-16T11:28:54;10.98;;;2.25;;
58208;SDS011;44006;52.028;4.696;2022-10-16T11:34:06;14.93;;;1.98;;
58208;SDS011;44006;52.028;4.696;2022-10-16T11:39:04;8.95;;;1.40;;
58208;SDS011;44006;52.028;4.696;2022-10-16T11:41:39;10.38;;;2.40;;
58208;SDS011;44006;52.028;4.696;2022-10-16T11:49:30;10.15;;;1.65;;
58208;SDS011;44006;52.028;4.696;2022-10-16T11:56:57;10.75;;;1.90;;
58208;SDS011;44006;52.028;4.696;2022-10-16T12:01:54;9.52;;;2.03;;
58208;SDS011;44006;52.028;4.696;2022-10-16T12:06:59;11.38;;;1.90;;
58208;SDS011;44006;52.028;4.696;2022-10-16T12:09:34;11.32;;;1.83;;
58208;SDS011;44006;52.028;4.696;2022-10-16T12:12:01;8.25;;;2.03;;
58208;SDS011;44006;52.028;4.696;2022-10-16T12:16:55;16.23;;;2.33;;
58208;SDS011;44006;52.028;4.696;2022-10-16T12:19:21;11.88;;;1.83;;
58208;SDS011;44006;52.028;4.696;2022-10-16T12:21:46;11.18;;;1.80;;
58208;SDS011;44006;52.028;4.696;2022-10-16T12:27:18;12.82;;;2.00;;
58208;SDS011;44006;52.028;4.696;2022-10-16T12:29:46;12.27;;;2.25;;
58208;SDS011;44006;52.028;4.696;2022-10-16T12:32:34;9.95;;;1.77;;
58208;SDS011;44006;52.028;4.696;2022-10-16T12:34:58;11.98;;;1.70;;
58208;SDS011;44006;52.028;4.696;2022-10-16T12:37:24;15.77;;;2.10;;
58208;SDS011;44006;52.028;4.696;2022-10-16T12:39:52;12.10;;;2.20;;
58208;SDS011;44006;52.028;4.696;2022-10-16T12:44:55;13.02;;;2.10;;
58208;SDS011;44006;52.028;4.696;2022-10-16T12:49:51;10.00;;;1.85;;
58208;SDS011;44006;52.028;4.696;2022-10-16T12:52:27;9.23;;;1.83;;
58208;SDS011;44006;52.028;4.696;2022-10-16T12:54:55;10.82;;;2.10;;
58208;SDS011;44006;52.028;4.696;2022-10-16T13:04:47;13.80;;;2.47;;
58208;SDS011;44006;52.028;4.696;2022-10-16T13:09:44;9.13;;;1.90;;
58208;SDS011;44006;52.028;4.696;2022-10-16T13:17:24;11.63;;;2.17;;
58208;SDS011;44006;52.028;4.696;2022-10-16T13:20:06;8.75;;;1.70;;
58208;SDS011;44006;52.028;4.696;2022-10-16T13:22:45;9.80;;;1.98;;
58208;SDS011;44006;52.028;4.696;2022-10-16T13:25:16;12.98;;;2.10;;
58208;SDS011;44006;52.028;4.696;2022-10-16T13:27:46;10.52;;;1.95;;
58208;SDS011;44006;52.028;4.696;2022-10-16T13:30:19;11.98;;;2.05;;
58208;SDS011;44006;52.028;4.696;2022-10-16T13:32:48;11.73;;;2.08;;
58208;SDS011;44006;52.028;4.696;2022-10-16T13:35:25;15.15;;;2.40;;
58208;SDS011;44006;52.028;4.696;2022-10-16T13:37:51;13.10;;;2.28;;
58208;SDS011;44006;52.028;4.696;2022-10-16T13:40:21;12.02;;;2.05;;
58208;SDS011;44006;52.028;4.696;2022-10-16T13:42:47;15.77;;;2.13;;
58208;SDS011;44006;52.028;4.696;2022-10-16T13:45:19;13.05;;;2.08;;
58208;SDS011;44006;52.028;4.696;2022-10-16T13:47:45;12.68;;;2.28;;
58208;SDS011;44006;52.028;4.696;2022-10-16T13:50:15;13.27;;;2.60;;
58208;SDS011;44006;52.028;4.696;2022-10-16T13:52:41;10.93;;;2.03;;
58208;SDS011;44006;52.028;4.696;2022-10-16T13:55:13;11.25;;;2.50;;
58208;SDS011;44006;52.028;4.696;2022-10-16T13:57:40;14.05;;;2.47;;
58208;SDS011;44006;52.028;4.696;2022-10-16T14:02:45;16.73;;;2.05;;
58208;SDS011;44006;52.028;4.696;2022-10-16T14:05:15;10.32;;;2.30;;
58208;SDS011;44006;52.028;4.696;2022-10-16T14:07:41;12.73;;;2.20;;
58208;SDS011;44006;52.028;4.696;2022-10-16T14:10:22;9.30;;;2.03;;
58208;SDS011;44006;52.028;4.696;2022-10-16T14:12:59;12.02;;;1.90;;
58208;SDS011;44006;52.028;4.696;2022-10-16T14:15:25;12.43;;;2.10;;
58208;SDS011;44006;52.028;4.696;2022-10-16T14:17:51;12.27;;;2.05;;
58208;SDS011;44006;52.028;4.696;2022-10-16T14:20:18;8.93;;;1.80;;
58208;SDS011;44006;52.028;4.696;2022-10-16T14:22:45;10.82;;;2.00;;
58208;SDS011;44006;52.028;4.696;2022-10-16T14:30:26;14.30;;;2.22;;
58208;SDS011;44006;52.028;4.696;2022-10-16T14:32:56;12.40;;;1.83;;
58208;SDS011;44006;52.028;4.696;2022-10-16T14:35:24;11.60;;;2.35;;
58208;SDS011;44006;52.028;4.696;2022-10-16T14:37:53;14.68;;;2.85;;
58208;SDS011;44006;52.028;4.696;2022-10-16T14:40:18;12.07;;;2.20;;
58208;SDS011;44006;52.028;4.696;2022-10-16T14:42:43;15.13;;;2.08;;
58208;SDS011;44006;52.028;4.696;2022-10-16T14:45:09;13.57;;;2.42;;
58208;SDS011;44006;52.028;4.696;2022-10-16T14:47:35;16.10;;;2.53;;
58208;SDS011;44006;52.028;4.696;2022-10-16T14:50:02;10.60;;;2.40;;
58208;SDS011;44006;52.028;4.696;2022-10-16T14:52:27;7.95;;;1.70;;
58208;SDS011;44006;52.028;4.696;2022-10-16T14:54:52;12.03;;;2.33;;
58208;SDS011;44006;52.028;4.696;2022-10-16T14:57:20;10.13;;;1.77;;
58208;SDS011;44006;52.028;4.696;2022-10-16T14:59:47;13.13;;;1.98;;
58208;SDS011;44006;52.028;4.696;2022-10-16T15:02:30;11.15;;;1.70;;
58208;SDS011;44006;52.028;4.696;2022-10-16T15:04:55;16.73;;;2.35;;
58208;SDS011;44006;52.028;4.696;2022-10-16T15:07:21;12.70;;;1.80;;
58208;SDS011;44006;52.028;4.696;2022-10-16T15:09:46;12.88;;;2.08;;
58208;SDS011;44006;52.028;4.696;2022-10-16T15:12:12;7.85;;;1.73;;
58208;SDS011;44006;52.028;4.696;2022-10-16T15:14:37;11.23;;;2.05;;
58208;SDS011;44006;52.028;4.696;2022-10-16T15:17:02;9.93;;;2.00;;
58208;SDS011;44006;52.028;4.696;2022-10-16T15:19:28;7.53;;;2.40;;
58208;SDS011;44006;52.028;4.696;2022-10-16T15:21:53;10.70;;;2.38;;
58208;SDS011;44006;52.028;4.696;2022-10-16T15:24:19;11.48;;;2.22;;
58208;SDS011;44006;52.028;4.696;2022-10-16T15:26:44;11.85;;;2.30;;
58208;SDS011;44006;52.028;4.696;2022-10-16T15:29:11;12.10;;;2.05;;
58208;SDS011;44006;52.028;4.696;2022-10-16T15:31:36;9.95;;;1.80;;
58208;SDS011;44006;52.028;4.696;2022-10-16T15:34:02;12.23;;;2.25;;
58208;SDS011;44006;52.028;4.696;2022-10-16T15:36:33;13.98;;;2.42;;
58208;SDS011;44006;52.028;4.696;2022-10-16T15:39:04;10.73;;;1.95;;
58208;SDS011;44006;52.028;4.696;2022-10-16T15:41:30;11.48;;;2.15;;
58208;SDS011;44006;52.028;4.696;2022-10-16T15:43:55;11.43;;;2.42;;
58208;SDS011;44006;52.028;4.696;2022-10-16T15:46:22;13.10;;;2.23;;
58208;SDS011;44006;52.028;4.696;2022-10-16T15:48:48;13.70;;;1.85;;
58208;SDS011;44006;52.028;4.696;2022-10-16T15:51:13;12.90;;;2.28;;
58208;SDS011;44006;52.028;4.696;2022-10-16T15:53:39;9.77;;;2.15;;
58208;SDS011;44006;52.028;4.696;2022-10-16T15:56:05;12.57;;;2.40;;
58208;SDS011;44006;52.028;4.696;2022-10-16T15:58:32;15.35;;;2.30;;
58208;SDS011;44006;52.028;4.696;2022-10-16T16:00:57;7.40;;;2.15;;
58208;SDS011;44006;52.028;4.696;2022-10-16T16:03:25;8.95;;;2.00;;
58208;SDS011;44006;52.028;4.696;2022-10-16T16:05:51;15.13;;;2.47;;
58208;SDS011;44006;52.028;4.696;2022-10-16T16:08:16;10.60;;;2.60;;
58208;SDS011;44006;52.028;4.696;2022-10-16T16:10:43;11.13;;;2.33;;
58208;SDS011;44006;52.028;4.696;2022-10-16T16:13:08;11.30;;;3.10;;
58208;SDS011;44006;52.028;4.696;2022-10-16T16:15:33;13.37;;;3.53;;
58208;SDS011;44006;52.028;4.696;2022-10-16T16:17:58;14.23;;;3.67;;
58208;SDS011;44006;52.028;4.696;2022-10-16T16:20:25;14.98;;;4.40;;
58208;SDS011;44006;52.028;4.696;2022-10-16T16:22:50;15.68;;;3.70;;
58208;SDS011;44006;52.028;4.696;2022-10-16T16:25:15;8.40;;;3.35;;
58208;SDS011;44006;52.028;4.696;2022-10-16T16:27:41;12.95;;;5.50;;
58208;SDS011;44006;52.028;4.696;2022-10-16T16:30:06;20.20;;;10.20;;
58208;SDS011;44006;52.028;4.696;2022-10-16T16:32:32;28.70;;;14.48;;
58208;SDS011;44006;52.028;4.696;2022-10-16T16:34:58;27.35;;;15.43;;
58208;SDS011;44006;52.028;4.696;2022-10-16T16:37:23;30.58;;;17.38;;
58208;SDS011;44006;52.028;4.696;2022-10-16T16:39:48;32.90;;;18.88;;
58208;SDS011;44006;52.028;4.696;2022-10-16T16:42:13;28.87;;;16.73;;
58208;SDS011;44006;52.028;4.696;2022-10-16T16:44:39;28.15;;;15.27;;